createdAt,value
2023-04-17T00:00:59.346Z,23.35
2023-04-17T00:03:32.161Z,23.27
2023-04-17T00:06:04.667Z,22.88
2023-04-17T00:08:36.838Z,23.55
2023-04-17T00:11:09.325Z,23.65
2023-04-17T00:13:44.135Z,23.83
2023-04-17T00:16:16.354Z,24.33
2023-04-17T00:18:48.438Z,24.88
2023-04-17T00:21:20.651Z,24.17
2023-04-17T00:23:52.756Z,23.67
2023-04-17T00:26:25.468Z,25.15
2023-04-17T00:28:57.589Z,25.38
2023-04-17T00:31:29.772Z,25.63
2023-04-17T00:34:02.070Z,24.73
2023-04-17T00:36:34.222Z,26.15
2023-04-17T00:39:06.478Z,25.77
2023-04-17T00:41:38.605Z,24.60
2023-04-17T00:44:10.810Z,25.17
2023-04-17T00:46:43.206Z,25.92
2023-04-17T00:49:15.460Z,25.63
2023-04-17T00:51:47.598Z,24.88
2023-04-17T00:54:21.052Z,26.00
2023-04-17T00:56:54.745Z,24.90
2023-04-17T00:59:28.624Z,25.65
2023-04-17T01:02:01.379Z,26.20
2023-04-17T01:04:33.547Z,27.65
2023-04-17T01:07:05.817Z,28.58
2023-04-17T01:09:38.800Z,25.50
2023-04-17T01:12:25.855Z,25.77
2023-04-17T01:14:59.032Z,27.30
2023-04-17T01:17:31.477Z,26.17
2023-04-17T01:20:10.974Z,27.33
2023-04-17T01:22:43.299Z,27.20
2023-04-17T01:25:15.715Z,26.13
2023-04-17T01:27:47.868Z,28.10
2023-04-17T01:30:20.491Z,27.00
2023-04-17T01:32:56.079Z,28.85
2023-04-17T01:35:28.436Z,27.98
2023-04-17T01:38:00.637Z,28.63
2023-04-17T01:40:32.823Z,27.25
2023-04-17T01:43:04.893Z,28.13
2023-04-17T01:45:37.066Z,27.63
2023-04-17T01:48:09.230Z,29.23
2023-04-17T01:50:41.731Z,28.15
2023-04-17T01:53:13.904Z,29.50
2023-04-17T01:55:46.092Z,28.52
2023-04-17T01:58:18.251Z,26.88
2023-04-17T02:00:50.710Z,28.27
2023-04-17T02:03:24.807Z,27.33
2023-04-17T02:05:57.180Z,28.23
2023-04-17T02:08:30.074Z,29.15
2023-04-17T02:11:02.459Z,30.55
2023-04-17T02:13:34.723Z,29.63
2023-04-17T02:16:07.974Z,29.23
2023-04-17T02:18:41.119Z,28.98
2023-04-17T02:21:13.273Z,29.52
2023-04-17T02:23:45.382Z,30.27
2023-04-17T02:26:17.586Z,30.02
2023-04-17T02:28:49.777Z,29.17
2023-04-17T02:31:22.174Z,29.75
2023-04-17T02:33:54.447Z,30.20
2023-04-17T02:36:27.641Z,29.67
2023-04-17T02:38:59.903Z,29.55
2023-04-17T02:41:32.286Z,30.20
2023-04-17T02:44:04.624Z,29.92
2023-04-17T02:46:39.668Z,30.38
2023-04-17T02:49:12.013Z,30.08
2023-04-17T02:51:44.420Z,29.92
2023-04-17T02:54:16.505Z,30.77
2023-04-17T02:56:48.825Z,32.30
2023-04-17T02:59:21.078Z,30.73
2023-04-17T03:01:53.780Z,30.80
2023-04-17T03:04:28.304Z,32.05
2023-04-17T03:07:01.726Z,30.63
2023-04-17T03:09:35.211Z,30.20
2023-04-17T03:12:07.691Z,30.90
2023-04-17T03:14:39.946Z,31.45
2023-04-17T03:17:14.275Z,30.80
2023-04-17T03:19:47.188Z,32.40
2023-04-17T03:22:19.348Z,31.23
2023-04-17T03:24:51.384Z,31.38
2023-04-17T03:27:24.571Z,31.50
2023-04-17T03:29:56.778Z,32.45
2023-04-17T03:32:28.991Z,30.75
2023-04-17T03:35:01.166Z,31.73
2023-04-17T03:37:33.344Z,30.83
2023-04-17T03:40:06.801Z,32.55
2023-04-17T03:42:38.926Z,31.17
2023-04-17T03:45:11.371Z,30.73
2023-04-17T03:47:43.499Z,30.88
2023-04-17T03:50:15.706Z,33.40
2023-04-17T03:52:47.873Z,32.63
2023-04-17T03:55:20.041Z,32.30
2023-04-17T03:57:52.229Z,32.15
2023-04-17T04:00:24.788Z,30.88
2023-04-17T04:02:56.996Z,32.60
2023-04-17T04:05:29.285Z,31.15
2023-04-17T04:08:01.464Z,33.47
2023-04-17T04:10:33.719Z,30.50
2023-04-17T04:13:05.865Z,31.27
2023-04-17T04:15:38.388Z,32.83
2023-04-17T04:18:10.635Z,31.67
2023-04-17T04:20:42.701Z,31.48
2023-04-17T04:23:16.967Z,31.65
2023-04-17T04:25:49.833Z,32.08
2023-04-17T04:28:23.552Z,32.13
2023-04-17T04:30:55.674Z,32.80
2023-04-17T04:33:27.930Z,33.05
2023-04-17T04:36:01.689Z,32.33
2023-04-17T04:38:34.185Z,33.65
2023-04-17T04:41:10.483Z,34.22
2023-04-17T04:43:42.657Z,31.60
2023-04-17T04:46:14.724Z,33.50
2023-04-17T04:48:46.822Z,30.85
2023-04-17T04:51:19.535Z,32.38
2023-04-17T04:53:51.574Z,32.97
2023-04-17T04:56:23.705Z,33.63
2023-04-17T04:58:57.605Z,31.85
2023-04-17T05:01:30.016Z,32.53
2023-04-17T05:04:02.449Z,32.83
2023-04-17T05:06:34.671Z,32.40
2023-04-17T05:09:07.154Z,33.70
2023-04-17T05:11:39.332Z,32.40
2023-04-17T05:14:11.413Z,32.00
2023-04-17T05:16:43.511Z,32.17
2023-04-17T05:19:15.867Z,32.00
2023-04-17T05:21:48.141Z,32.70
2023-04-17T05:24:20.310Z,32.40
2023-04-17T05:26:53.634Z,31.67
2023-04-17T05:29:26.064Z,32.05
2023-04-17T05:31:58.258Z,29.73
2023-04-17T05:34:30.842Z,31.98
2023-04-17T05:37:03.603Z,31.17
2023-04-17T05:39:35.788Z,31.80
2023-04-17T05:42:08.483Z,29.98
2023-04-17T05:44:40.570Z,30.63
2023-04-17T05:47:13.492Z,31.58
2023-04-17T05:49:45.876Z,30.92
2023-04-17T05:52:20.366Z,30.05
2023-04-17T05:54:52.482Z,31.27
2023-04-17T05:57:24.701Z,30.85
2023-04-17T05:59:57.027Z,30.67
2023-04-17T06:02:29.393Z,32.47
2023-04-17T06:05:01.901Z,32.00
2023-04-17T06:07:34.811Z,29.83
2023-04-17T06:10:12.122Z,32.22
2023-04-17T06:14:06.304Z,31.38
2023-04-17T06:17:16.985Z,30.95
2023-04-17T06:19:58.127Z,31.02
2023-04-17T06:23:32.046Z,31.38
2023-04-17T06:36:43.554Z,30.52
2023-04-17T07:06:29.784Z,30.90
2023-04-17T07:09:09.029Z,31.02
2023-04-17T07:15:54.270Z,29.25
2023-04-17T07:36:59.864Z,28.40
2023-04-17T08:01:17.588Z,23.95
2023-04-17T08:05:29.338Z,21.33
2023-04-17T08:20:31.027Z,13.50
2023-04-17T08:24:12.688Z,14.05
2023-04-17T08:29:51.830Z,12.85
2023-04-17T08:36:18.916Z,12.27
2023-04-17T08:39:07.228Z,12.45
2023-04-17T08:42:22.748Z,10.05
2023-04-17T08:45:02.109Z,12.40
2023-04-17T08:47:43.081Z,10.75
2023-04-17T08:50:22.100Z,10.10
2023-04-17T09:01:19.034Z,10.55
2023-04-17T09:20:22.105Z,10.65
2023-04-17T09:23:30.735Z,8.55
2023-04-17T09:50:03.963Z,10.43
2023-04-17T09:59:31.918Z,8.25
2023-04-17T10:02:16.697Z,8.15
2023-04-17T10:08:39.896Z,7.57
2023-04-17T10:11:12.949Z,8.18
2023-04-17T10:13:52.547Z,8.20
2023-04-17T10:16:39.284Z,7.38
2023-04-17T10:19:33.698Z,7.20
2023-04-17T10:22:18.527Z,7.43
2023-04-17T10:25:13.830Z,7.93
2023-04-17T10:28:01.393Z,6.85
2023-04-17T10:30:55.080Z,6.75
2023-04-17T10:33:28.228Z,7.45
2023-04-17T10:36:00.824Z,6.88
2023-04-17T10:38:37.277Z,6.95
2023-04-17T10:41:11.488Z,6.65
2023-04-17T10:43:45.556Z,6.95
2023-04-17T10:46:26.397Z,7.35
2023-04-17T10:48:59.103Z,7.47
2023-04-17T10:51:39.507Z,6.43
2023-04-17T10:54:18.377Z,6.72
2023-04-17T10:56:54.476Z,6.70
2023-04-17T11:02:16.407Z,5.90
2023-04-17T11:04:49.028Z,6.28
2023-04-17T11:07:22.306Z,5.30
2023-04-17T11:09:54.428Z,6.65
2023-04-17T11:12:26.616Z,7.43
2023-04-17T11:15:06.558Z,6.60
2023-04-17T11:17:45.789Z,7.85
2023-04-17T11:20:23.372Z,8.45
2023-04-17T11:22:56.788Z,7.80
2023-04-17T11:25:31.759Z,13.68
2023-04-17T11:28:06.873Z,7.82
2023-04-17T11:30:42.465Z,6.45
2023-04-17T11:33:16.178Z,6.10
2023-04-17T11:35:48.360Z,7.70
2023-04-17T11:38:22.848Z,6.95
2023-04-17T11:41:00.991Z,7.45
2023-04-17T11:43:37.120Z,7.13
2023-04-17T11:46:09.279Z,6.57
2023-04-17T11:48:41.429Z,7.50
2023-04-17T11:51:19.142Z,8.15
2023-04-17T11:53:52.379Z,8.52
2023-04-17T11:56:28.673Z,8.20
2023-04-17T11:59:03.923Z,8.07
2023-04-17T12:01:36.226Z,6.88
2023-04-17T12:04:21.272Z,7.35
2023-04-17T12:06:57.883Z,6.72
2023-04-17T12:09:32.852Z,7.07
2023-04-17T12:12:07.336Z,6.00
2023-04-17T12:14:39.638Z,5.25
2023-04-17T12:17:11.734Z,5.13
2023-04-17T12:19:45.317Z,6.07
2023-04-17T12:22:17.383Z,5.97
2023-04-17T12:24:49.593Z,6.30
2023-04-17T12:27:22.972Z,6.47
2023-04-17T12:29:55.110Z,6.20
2023-04-17T12:32:27.324Z,6.35
2023-04-17T12:34:59.463Z,6.20
2023-04-17T12:37:31.514Z,5.68
2023-04-17T12:40:04.299Z,7.00
2023-04-17T12:42:48.302Z,6.53
2023-04-17T12:45:21.890Z,5.70
2023-04-17T12:47:54.822Z,6.20
2023-04-17T12:50:27.324Z,7.13
2023-04-17T12:52:59.705Z,5.85
2023-04-17T12:55:32.654Z,6.30
2023-04-17T12:58:09.029Z,5.20
2023-04-17T13:39:46.751Z,6.93
2023-04-17T13:42:19.412Z,6.55
2023-04-17T13:44:51.563Z,6.47
2023-04-17T13:47:23.765Z,6.80
2023-04-17T13:49:55.873Z,13.63
2023-04-17T13:52:27.975Z,9.85
2023-04-17T13:55:00.115Z,7.57
2023-04-17T13:57:32.418Z,6.05
2023-04-17T14:00:05.150Z,6.18
2023-04-17T14:02:37.480Z,6.38
2023-04-17T14:05:10.266Z,6.47
2023-04-17T14:07:44.088Z,6.68
2023-04-17T14:10:16.165Z,6.38
2023-04-17T14:12:48.387Z,6.40
2023-04-17T14:15:21.074Z,5.93
2023-04-17T14:17:53.263Z,6.13
2023-04-17T14:20:25.823Z,6.05
2023-04-17T14:22:58.035Z,6.15
2023-04-17T14:25:30.115Z,5.18
2023-04-17T14:28:02.317Z,5.38
2023-04-17T14:30:34.351Z,5.60
2023-04-17T14:33:06.438Z,5.22
2023-04-17T14:35:40.260Z,5.25
2023-04-17T14:38:12.576Z,5.55
2023-04-17T14:40:44.704Z,5.53
2023-04-17T14:43:17.148Z,5.53
2023-04-17T14:45:49.429Z,11.27
2023-04-17T14:48:21.544Z,6.22
2023-04-17T14:50:53.730Z,5.63
2023-04-17T14:53:25.937Z,6.07
2023-04-17T14:55:59.570Z,5.95
2023-04-17T14:58:31.858Z,6.72
2023-04-17T15:01:04.873Z,6.43
2023-04-17T15:03:37.170Z,6.60
2023-04-17T15:06:09.485Z,6.60
2023-04-17T15:08:41.868Z,6.28
2023-04-17T15:11:14.140Z,7.28
2023-04-17T15:13:55.444Z,5.90
2023-04-17T15:16:27.653Z,6.70
2023-04-17T15:18:59.811Z,6.28
2023-04-17T15:21:31.965Z,6.28
2023-04-17T15:24:04.535Z,6.35
2023-04-17T15:26:36.723Z,7.20
2023-04-17T15:29:08.868Z,7.28
2023-04-17T15:31:41.122Z,6.53
2023-04-17T15:34:14.326Z,7.20
2023-04-17T15:36:48.487Z,7.22
2023-04-17T15:39:20.709Z,7.38
2023-04-17T15:41:52.778Z,7.50
2023-04-17T15:44:25.002Z,7.13
2023-04-17T15:46:57.525Z,7.40
2023-04-17T15:49:31.055Z,7.82
2023-04-17T15:52:03.150Z,7.13
2023-04-17T15:54:35.308Z,7.60
2023-04-17T15:57:07.416Z,7.03
2023-04-17T15:59:39.473Z,6.95
2023-04-17T16:02:15.373Z,7.28
2023-04-17T16:04:47.722Z,7.50
2023-04-17T16:07:20.098Z,8.32
2023-04-17T16:09:52.212Z,9.30
2023-04-17T16:12:24.313Z,8.73
2023-04-17T16:14:56.377Z,8.65
2023-04-17T16:17:28.620Z,7.45
2023-04-17T16:20:01.321Z,7.97
2023-04-17T16:22:33.541Z,7.00
2023-04-17T16:25:06.693Z,7.63
2023-04-17T16:27:40.440Z,7.65
2023-04-17T16:30:12.987Z,7.10
2023-04-17T16:32:45.719Z,8.48
2023-04-17T16:35:17.884Z,8.18
2023-04-17T16:37:50.121Z,7.68
2023-04-17T16:40:22.362Z,7.50
2023-04-17T16:42:54.455Z,7.22
2023-04-17T16:45:27.187Z,8.32
2023-04-17T16:47:59.796Z,8.77
2023-04-17T16:50:32.440Z,8.25
2023-04-17T16:53:04.933Z,8.02
2023-04-17T16:55:38.162Z,8.10
2023-04-17T16:58:10.928Z,7.05
2023-04-17T17:00:43.392Z,8.07
2023-04-17T17:03:16.110Z,7.82
2023-04-17T17:05:48.534Z,7.10
2023-04-17T17:08:37.581Z,7.40
2023-04-17T17:11:18.391Z,6.07
2023-04-17T17:13:54.734Z,8.43
2023-04-17T17:17:41.894Z,7.10
2023-04-17T17:20:20.474Z,8.07
2023-04-17T17:23:07.470Z,7.32
2023-04-17T17:29:44.275Z,8.27
2023-04-17T17:32:25.354Z,9.35
2023-04-17T17:35:07.442Z,8.80
2023-04-17T17:37:54.786Z,6.82
2023-04-17T17:40:29.487Z,6.88
2023-04-17T17:44:19.678Z,6.78
2023-04-17T17:47:09.734Z,7.68
2023-04-17T17:50:10.582Z,7.57
2023-04-17T17:57:45.753Z,7.32
2023-04-17T18:00:31.297Z,7.65
2023-04-17T18:03:42.972Z,7.63
2023-04-17T18:09:51.523Z,8.23
2023-04-17T18:13:21.466Z,9.52
2023-04-17T18:15:59.399Z,8.60
2023-04-17T18:25:32.473Z,8.50
2023-04-17T18:28:17.667Z,9.20
2023-04-17T18:30:59.928Z,8.07
2023-04-17T21:21:52.250Z,9.05
2023-04-17T23:00:42.342Z,10.88
2023-04-17T23:03:14.689Z,9.93
2023-04-17T23:05:46.947Z,11.57
2023-04-17T23:08:19.548Z,10.75
2023-04-17T23:11:02.132Z,11.82
2023-04-17T23:13:34.188Z,10.80
2023-04-17T23:16:09.641Z,11.13
2023-04-17T23:18:41.878Z,10.80
2023-04-17T23:21:14.076Z,9.35
2023-04-17T23:23:48.575Z,10.68
2023-04-17T23:26:20.805Z,11.13
2023-04-17T23:28:53.635Z,11.13
2023-04-17T23:31:25.782Z,10.77
2023-04-17T23:33:57.934Z,10.75
2023-04-17T23:36:30.779Z,9.75
2023-04-17T23:39:03.256Z,10.55
2023-04-17T23:41:35.525Z,10.63
2023-04-17T23:44:08.268Z,11.40
2023-04-17T23:46:40.581Z,11.38
2023-04-17T23:49:13.124Z,11.05
2023-04-17T23:51:45.223Z,11.73
2023-04-17T23:54:17.573Z,11.15
2023-04-17T23:56:50.082Z,10.50
